createdAt,value
2019-02-04T00:00:24.080Z,62.85
2019-02-04T00:00:57.701Z,62.82
2019-02-04T00:01:28.899Z,62.16
2019-02-04T00:02:01.373Z,61.50
2019-02-04T00:02:32.668Z,60.95
2019-02-04T00:03:07.829Z,60.48
2019-02-04T00:03:39.110Z,59.85
2019-02-04T00:04:11.298Z,59.22
2019-02-04T00:04:42.649Z,58.61
2019-02-04T00:05:14.855Z,58.00
2019-02-04T00:05:46.119Z,57.46
2019-02-04T00:06:17.369Z,57.15
2019-02-04T00:06:48.638Z,56.79
2019-02-04T00:07:20.877Z,56.55
2019-02-04T00:07:52.104Z,56.31
2019-02-04T00:08:23.334Z,56.08
2019-02-04T00:08:54.663Z,55.89
2019-02-04T00:09:25.960Z,55.59
2019-02-04T00:09:57.492Z,55.42
2019-02-04T00:10:28.708Z,55.16
2019-02-04T00:11:00.029Z,55.02
2019-02-04T00:11:31.465Z,54.73
2019-02-04T00:12:02.800Z,54.32
2019-02-04T00:12:34.025Z,53.83
2019-02-04T00:13:05.542Z,53.81
2019-02-04T00:13:36.758Z,54.11
2019-02-04T00:14:07.969Z,54.55
2019-02-04T00:14:39.191Z,55.18
2019-02-04T00:15:10.469Z,55.95
2019-02-04T00:15:41.977Z,56.89
2019-02-04T00:16:13.206Z,57.81
2019-02-04T00:16:44.427Z,58.54
2019-02-04T00:17:15.691Z,59.45
2019-02-04T00:17:46.941Z,60.46
2019-02-04T00:18:18.149Z,61.83
2019-02-04T00:18:49.479Z,62.57
2019-02-04T00:19:20.705Z,62.70
2019-02-04T00:19:51.928Z,62.62
2019-02-04T00:20:23.162Z,62.20
2019-02-04T00:20:54.460Z,61.68
2019-02-04T00:21:25.872Z,61.12
2019-02-04T00:21:57.114Z,60.51
2019-02-04T00:22:28.840Z,59.88
2019-02-04T00:23:00.096Z,59.35
2019-02-04T00:23:31.646Z,58.78
2019-02-04T00:24:02.849Z,58.17
2019-02-04T00:24:34.081Z,57.65
2019-02-04T00:25:06.246Z,57.27
2019-02-04T00:25:37.458Z,56.89
2019-02-04T00:26:09.666Z,56.51
2019-02-04T00:26:51.065Z,56.12
2019-02-04T00:27:13.994Z,55.87
2019-02-04T00:27:45.187Z,55.64
2019-02-04T00:28:16.669Z,55.25
2019-02-04T00:28:48.025Z,54.91
2019-02-04T00:29:19.313Z,54.77
2019-02-04T00:29:50.543Z,54.17
2019-02-04T00:30:23.432Z,53.73
2019-02-04T00:30:54.664Z,53.71
2019-02-04T00:31:25.868Z,54.04
2019-02-04T00:31:57.164Z,54.56
2019-02-04T00:32:28.457Z,55.31
2019-02-04T00:32:59.791Z,55.94
2019-02-04T00:33:30.985Z,56.71
2019-02-04T00:34:02.289Z,57.52
2019-02-04T00:34:33.485Z,58.39
2019-02-04T00:35:05.205Z,59.15
2019-02-04T00:35:36.421Z,60.04
2019-02-04T00:36:07.726Z,61.50
2019-02-04T00:36:38.952Z,62.44
2019-02-04T00:37:10.274Z,62.73
2019-02-04T00:37:41.444Z,62.55
2019-02-04T00:38:12.665Z,62.05
2019-02-04T00:38:43.892Z,61.56
2019-02-04T00:39:15.108Z,61.12
2019-02-04T00:39:46.328Z,60.71
2019-02-04T00:40:20.806Z,60.14
2019-02-04T00:40:52.332Z,59.57
2019-02-04T00:41:23.528Z,59.07
2019-02-04T00:41:54.721Z,58.71
2019-02-04T00:42:25.963Z,58.26
2019-02-04T00:42:57.188Z,57.87
2019-02-04T00:43:28.364Z,57.53
2019-02-04T00:43:59.594Z,57.28
2019-02-04T00:44:30.786Z,56.94
2019-02-04T00:45:04.952Z,56.56
2019-02-04T00:45:36.174Z,56.34
2019-02-04T00:46:07.408Z,56.10
2019-02-04T00:46:38.605Z,55.70
2019-02-04T00:47:09.815Z,55.42
2019-02-04T00:47:41.298Z,55.15
2019-02-04T00:48:12.547Z,54.91
2019-02-04T00:48:44.684Z,54.72
2019-02-04T00:49:15.942Z,54.37
2019-02-04T00:49:47.119Z,53.97
2019-02-04T00:50:19.798Z,53.94
2019-02-04T00:50:51.985Z,54.16
2019-02-04T00:51:23.255Z,54.78
2019-02-04T00:51:54.447Z,55.42
2019-02-04T00:52:25.686Z,56.14
2019-02-04T00:52:56.892Z,56.99
2019-02-04T00:53:28.478Z,57.79
2019-02-04T00:53:59.753Z,58.63
2019-02-04T00:54:31.027Z,59.52
2019-02-04T00:55:08.997Z,60.57
2019-02-04T00:55:40.253Z,61.97
2019-02-04T00:56:11.426Z,62.80
2019-02-04T00:56:42.656Z,63.06
2019-02-04T00:57:13.868Z,62.97
2019-02-04T00:57:45.182Z,62.68
2019-02-04T00:58:16.389Z,62.16
2019-02-04T00:58:47.620Z,61.58
2019-02-04T00:59:18.841Z,61.09
2019-02-04T00:59:50.065Z,60.68
2019-02-04T01:00:28.843Z,60.05
2019-02-04T01:01:00.084Z,59.47
2019-02-04T01:01:31.603Z,59.06
2019-02-04T01:02:02.910Z,58.55
2019-02-04T01:02:34.418Z,58.10
2019-02-04T01:03:05.801Z,57.77
2019-02-04T01:03:37.139Z,57.53
2019-02-04T01:04:08.501Z,57.11
2019-02-04T01:04:39.705Z,56.87
2019-02-04T01:05:11.061Z,56.57
2019-02-04T01:05:42.237Z,56.14
2019-02-04T01:06:13.479Z,55.70
2019-02-04T01:06:44.666Z,55.63
2019-02-04T01:07:16.140Z,55.43
2019-02-04T01:07:47.434Z,55.25
2019-02-04T01:08:19.122Z,55.11
2019-02-04T01:08:51.218Z,54.88
2019-02-04T01:09:22.438Z,54.91
2019-02-04T01:09:53.646Z,54.63
2019-02-04T01:10:29.029Z,54.29
2019-02-04T01:11:00.306Z,53.76
2019-02-04T01:11:31.669Z,53.81
2019-02-04T01:12:02.852Z,54.22
2019-02-04T01:12:34.414Z,54.72
2019-02-04T01:13:05.618Z,55.51
2019-02-04T01:13:37.868Z,56.37
2019-02-04T01:14:09.102Z,57.19
2019-02-04T01:14:40.338Z,58.12
2019-02-04T01:15:11.954Z,59.01
2019-02-04T01:15:43.177Z,59.64
2019-02-04T01:16:14.433Z,60.91
2019-02-04T01:16:45.707Z,62.21
2019-02-04T01:17:16.961Z,62.89
2019-02-04T01:17:48.215Z,63.23
2019-02-04T01:18:19.461Z,63.32
2019-02-04T01:18:50.691Z,62.98
2019-02-04T01:19:21.937Z,62.42
2019-02-04T01:19:53.280Z,61.83
2019-02-04T01:20:28.047Z,61.23
2019-02-04T01:20:59.426Z,60.60
2019-02-04T01:21:30.649Z,59.96
2019-02-04T01:22:02.188Z,59.35
2019-02-04T01:22:33.478Z,58.84
2019-02-04T01:23:04.760Z,58.38
2019-02-04T01:23:35.994Z,57.92
2019-02-04T01:24:07.227Z,57.56
2019-02-04T01:24:38.438Z,57.32
2019-02-04T01:25:09.762Z,56.82
2019-02-04T01:25:41.085Z,56.38
2019-02-04T01:26:12.416Z,55.96
2019-02-04T01:26:43.717Z,55.82
2019-02-04T01:27:15.004Z,55.58
2019-02-04T01:27:46.669Z,55.16
2019-02-04T01:28:17.940Z,55.00
2019-02-04T01:28:49.146Z,54.76
2019-02-04T01:29:20.397Z,54.51
2019-02-04T01:29:51.600Z,53.95
2019-02-04T01:30:23.345Z,53.47
2019-02-04T01:30:54.555Z,53.35
2019-02-04T01:31:25.807Z,53.66
2019-02-04T01:31:56.981Z,54.16
2019-02-04T01:32:28.205Z,54.77
2019-02-04T01:32:59.369Z,55.46
2019-02-04T01:33:30.956Z,56.41
2019-02-04T01:34:02.163Z,57.38
2019-02-04T01:34:33.481Z,58.22
2019-02-04T01:35:04.775Z,59.03
2019-02-04T01:35:36.134Z,60.04
2019-02-04T01:36:07.356Z,60.93
2019-02-04T01:36:38.738Z,62.25
2019-02-04T01:37:10.049Z,63.10
2019-02-04T01:37:41.291Z,63.35
2019-02-04T01:38:12.515Z,63.16
2019-02-04T01:38:43.887Z,62.58
2019-02-04T01:39:15.387Z,62.21
2019-02-04T01:39:46.638Z,61.70
2019-02-04T01:40:24.404Z,61.04
2019-02-04T01:40:55.653Z,60.66
2019-02-04T01:41:26.850Z,60.04
2019-02-04T01:41:58.124Z,59.54
2019-02-04T01:42:29.406Z,58.93
2019-02-04T01:43:00.688Z,58.46
2019-02-04T01:43:32.019Z,58.11
2019-02-04T01:44:03.312Z,57.80
2019-02-04T01:44:34.629Z,57.39
2019-02-04T01:45:07.152Z,57.10
2019-02-04T01:45:38.434Z,56.75
2019-02-04T01:46:09.744Z,56.35
2019-02-04T01:46:41.024Z,56.19
2019-02-04T01:47:18.073Z,55.97
2019-02-04T01:47:45.919Z,55.77
2019-02-04T01:48:17.249Z,55.58
2019-02-04T01:48:48.501Z,55.27
2019-02-04T01:49:19.670Z,55.13
2019-02-04T01:49:50.947Z,54.93
2019-02-04T01:50:22.258Z,54.45
2019-02-04T01:50:53.615Z,53.62
2019-02-04T01:51:24.819Z,53.29
2019-02-04T01:51:56.066Z,53.28
2019-02-04T01:52:27.232Z,53.47
2019-02-04T01:52:59.892Z,54.00
2019-02-04T01:53:31.100Z,54.80
2019-02-04T01:54:03.533Z,55.44
2019-02-04T01:54:34.775Z,56.30
2019-02-04T01:55:10.318Z,56.95
2019-02-04T01:55:41.630Z,57.84
2019-02-04T01:56:12.851Z,58.82
2019-02-04T01:56:44.047Z,59.73
2019-02-04T01:57:15.298Z,60.74
2019-02-04T01:57:49.918Z,61.97
2019-02-04T01:58:21.196Z,62.53
2019-02-04T01:58:52.444Z,62.63
2019-02-04T01:59:23.717Z,62.43
2019-02-04T01:59:54.992Z,62.04
2019-02-04T02:00:32.139Z,61.52
2019-02-04T02:01:03.467Z,61.00
2019-02-04T02:01:34.952Z,59.89
2019-02-04T02:02:06.549Z,59.20
2019-02-04T02:02:37.747Z,58.93
2019-02-04T02:03:09.011Z,58.46
2019-02-04T02:03:40.199Z,58.14
2019-02-04T02:04:11.425Z,57.54
2019-02-04T02:04:42.631Z,57.13
2019-02-04T02:05:13.962Z,56.81
2019-02-04T02:05:45.172Z,56.60
2019-02-04T02:06:16.576Z,56.04
2019-02-04T02:06:48.790Z,55.57
2019-02-04T02:07:20.031Z,55.22
2019-02-04T02:07:51.484Z,54.95
2019-02-04T02:08:22.726Z,54.57
2019-02-04T02:08:53.949Z,54.19
2019-02-04T02:09:25.143Z,53.90
2019-02-04T02:09:56.355Z,53.91
2019-02-04T02:10:27.550Z,54.07
2019-02-04T02:10:58.764Z,54.65
2019-02-04T02:11:29.962Z,55.28
2019-02-04T02:12:01.583Z,55.90
2019-02-04T02:12:32.824Z,56.51
2019-02-04T02:13:04.022Z,57.22
2019-02-04T02:13:35.631Z,57.95
2019-02-04T02:14:06.835Z,58.78
2019-02-04T02:14:38.078Z,59.60
2019-02-04T02:15:09.269Z,60.55
2019-02-04T02:15:40.496Z,61.82
2019-02-04T02:16:11.801Z,62.68
2019-02-04T02:16:43.031Z,63.18
2019-02-04T02:17:25.678Z,63.16
2019-02-04T02:17:47.415Z,62.71
2019-02-04T02:18:19.690Z,62.15
2019-02-04T02:18:50.999Z,61.50
2019-02-04T02:19:22.219Z,61.06
2019-02-04T02:19:53.439Z,60.38
2019-02-04T02:20:26.313Z,59.78
2019-02-04T02:20:57.650Z,59.30
2019-02-04T02:21:28.893Z,58.69
2019-02-04T02:22:00.180Z,58.16
2019-02-04T02:22:31.462Z,57.71
2019-02-04T02:23:02.977Z,57.22
2019-02-04T02:23:34.442Z,56.90
2019-02-04T02:24:05.712Z,56.48
2019-02-04T02:24:36.961Z,56.16
2019-02-04T02:25:08.248Z,55.86
2019-02-04T02:25:39.432Z,55.42
2019-02-04T02:26:10.770Z,55.14
2019-02-04T02:26:41.955Z,55.08
2019-02-04T02:27:13.365Z,54.81
2019-02-04T02:27:44.603Z,54.63
2019-02-04T02:28:15.888Z,53.75
2019-02-04T02:28:47.073Z,53.34
2019-02-04T02:29:18.325Z,53.17
2019-02-04T02:29:49.526Z,53.45
2019-02-04T02:30:29.739Z,54.15
2019-02-04T02:31:01.044Z,54.41
2019-02-04T02:31:32.507Z,55.36
2019-02-04T02:32:03.687Z,56.33
2019-02-04T02:32:35.188Z,57.01
2019-02-04T02:33:07.373Z,57.81
2019-02-04T02:33:38.635Z,58.45
2019-02-04T02:34:10.136Z,59.27
2019-02-04T02:34:41.349Z,60.25
2019-02-04T02:35:12.584Z,61.50
2019-02-04T02:35:43.808Z,62.25
2019-02-04T02:36:14.998Z,62.42
2019-02-04T02:36:46.227Z,62.38
2019-02-04T02:37:17.548Z,62.14
2019-02-04T02:37:48.782Z,61.63
2019-02-04T02:38:20.088Z,61.07
2019-02-04T02:38:51.337Z,60.47
2019-02-04T02:39:22.694Z,59.99
2019-02-04T02:39:54.208Z,59.36
2019-02-04T02:40:31.452Z,58.51
2019-02-04T02:41:03.111Z,58.30
2019-02-04T02:41:34.438Z,57.82
2019-02-04T02:42:05.747Z,57.25
2019-02-04T02:42:36.959Z,56.82
2019-02-04T02:43:08.187Z,56.33
2019-02-04T02:43:39.405Z,55.91
2019-02-04T02:44:10.683Z,55.26
2019-02-04T02:44:41.885Z,55.00
2019-02-04T02:45:13.194Z,54.73
2019-02-04T02:45:44.557Z,54.14
2019-02-04T02:46:15.797Z,53.48
2019-02-04T02:46:47.381Z,53.09
2019-02-04T02:47:18.617Z,53.19
2019-02-04T02:47:49.837Z,53.44
2019-02-04T02:48:21.104Z,54.06
2019-02-04T02:48:53.293Z,54.58
2019-02-04T02:49:24.539Z,55.39
2019-02-04T02:49:55.743Z,55.97
2019-02-04T02:50:26.986Z,56.86
2019-02-04T02:50:58.159Z,57.90
2019-02-04T02:51:29.413Z,58.41
2019-02-04T02:52:00.609Z,59.07
2019-02-04T02:52:32.210Z,59.93
2019-02-04T02:53:03.392Z,61.51
2019-02-04T02:53:34.629Z,62.29
2019-02-04T02:54:05.818Z,62.56
2019-02-04T02:54:37.064Z,62.25
2019-02-04T02:55:13.062Z,61.88
2019-02-04T02:55:44.303Z,61.33
2019-02-04T02:56:15.518Z,60.34
2019-02-04T02:56:47.005Z,59.74
2019-02-04T02:57:18.269Z,59.11
2019-02-04T02:57:49.478Z,58.63
2019-02-04T02:58:20.675Z,57.99
2019-02-04T02:58:51.925Z,57.47
2019-02-04T02:59:23.526Z,56.75
2019-02-04T02:59:54.721Z,56.06
2019-02-04T03:00:26.969Z,55.48
2019-02-04T03:00:58.197Z,54.98
2019-02-04T03:01:29.391Z,54.37
2019-02-04T03:02:00.623Z,53.50
2019-02-04T03:02:31.866Z,52.98
2019-02-04T03:03:03.130Z,52.38
2019-02-04T03:03:34.441Z,52.43
2019-02-04T03:04:05.658Z,52.77
2019-02-04T03:04:36.870Z,53.19
2019-02-04T03:05:12.399Z,53.88
2019-02-04T03:05:43.619Z,54.30
2019-02-04T03:06:15.238Z,54.75
2019-02-04T03:06:46.454Z,55.36
2019-02-04T03:07:17.656Z,56.20
2019-02-04T03:07:48.880Z,57.04
2019-02-04T03:08:20.080Z,57.63
2019-02-04T03:08:51.314Z,58.28
2019-02-04T03:09:22.540Z,59.04
2019-02-04T03:09:53.758Z,59.64
2019-02-04T03:10:27.780Z,60.78
2019-02-04T03:10:58.986Z,61.70
2019-02-04T03:11:30.222Z,62.15
2019-02-04T03:12:01.624Z,62.02
2019-02-04T03:12:32.929Z,61.65
2019-02-04T03:13:05.205Z,61.27
2019-02-04T03:13:36.423Z,60.26
2019-02-04T03:14:07.637Z,59.39
2019-02-04T03:14:38.849Z,58.97
2019-02-04T03:15:10.951Z,58.20
2019-02-04T03:15:42.189Z,57.74
2019-02-04T03:16:13.381Z,57.07
2019-02-04T03:16:44.617Z,56.40
2019-02-04T03:17:15.801Z,55.89
2019-02-04T03:17:52.035Z,55.31
2019-02-04T03:18:20.472Z,54.97
2019-02-04T03:18:52.099Z,54.61
2019-02-04T03:19:23.273Z,53.50
2019-02-04T03:19:54.517Z,52.94
2019-02-04T03:20:25.758Z,52.79
2019-02-04T03:20:57.066Z,52.94
2019-02-04T03:21:28.228Z,53.06
2019-02-04T03:21:59.486Z,53.57
2019-02-04T03:22:30.683Z,54.23
2019-02-04T03:23:02.225Z,55.13
2019-02-04T03:23:34.580Z,55.98
2019-02-04T03:24:05.895Z,56.82
2019-02-04T03:24:37.428Z,57.80
2019-02-04T03:25:12.993Z,58.31
2019-02-04T03:25:44.494Z,59.06
2019-02-04T03:26:15.769Z,60.00
2019-02-04T03:26:46.918Z,61.21
2019-02-04T03:27:18.148Z,62.08
2019-02-04T03:27:49.356Z,62.35
2019-02-04T03:28:20.703Z,62.23
2019-02-04T03:28:51.914Z,61.85
2019-02-04T03:29:23.197Z,61.29
2019-02-04T03:29:54.501Z,60.53
2019-02-04T03:30:28.633Z,59.77
2019-02-04T03:30:59.873Z,59.30
2019-02-04T03:31:31.099Z,58.70
2019-02-04T03:32:02.311Z,57.57
2019-02-04T03:32:33.932Z,57.24
2019-02-04T03:33:05.160Z,56.67
2019-02-04T03:33:36.476Z,55.87
2019-02-04T03:34:07.729Z,55.42
2019-02-04T03:34:40.009Z,55.04
2019-02-04T03:35:11.327Z,54.68
2019-02-04T03:35:42.536Z,53.97
2019-02-04T03:36:13.822Z,53.00
2019-02-04T03:36:45.009Z,52.47
2019-02-04T03:37:16.215Z,52.67
2019-02-04T03:37:47.406Z,52.69
2019-02-04T03:38:19.046Z,53.01
2019-02-04T03:38:50.261Z,53.80
2019-02-04T03:39:21.571Z,54.51
2019-02-04T03:39:52.833Z,55.23
2019-02-04T03:40:26.917Z,55.85
2019-02-04T03:40:58.156Z,56.62
2019-02-04T03:41:29.329Z,57.55
2019-02-04T03:42:00.699Z,57.99
2019-02-04T03:42:31.989Z,58.52
2019-02-04T03:43:03.239Z,59.63
2019-02-04T03:43:34.548Z,60.79
2019-02-04T03:44:05.953Z,61.27
2019-02-04T03:44:37.154Z,61.05
2019-02-04T03:45:10.297Z,60.76
2019-02-04T03:45:41.529Z,60.16
2019-02-04T03:46:12.758Z,59.56
2019-02-04T03:46:43.970Z,58.98
2019-02-04T03:47:15.168Z,58.36
2019-02-04T03:47:46.417Z,57.82
2019-02-04T03:48:17.722Z,57.25
2019-02-04T03:48:48.935Z,56.66
2019-02-04T03:49:20.140Z,55.78
2019-02-04T03:49:51.348Z,55.03
2019-02-04T03:50:22.588Z,54.55
2019-02-04T03:50:54.154Z,53.85
2019-02-04T03:51:25.401Z,52.68
2019-02-04T03:51:57.692Z,52.53
2019-02-04T03:52:28.922Z,52.73
2019-02-04T03:53:00.124Z,52.93
2019-02-04T03:53:31.502Z,53.41
2019-02-04T03:54:02.822Z,53.89
2019-02-04T03:54:34.022Z,54.68
2019-02-04T03:55:08.730Z,55.26
2019-02-04T03:55:39.987Z,55.89
2019-02-04T03:56:11.287Z,56.75
2019-02-04T03:56:42.590Z,57.39
2019-02-04T03:57:13.765Z,58.38
2019-02-04T03:57:45.269Z,59.28
2019-02-04T03:58:16.558Z,59.98
2019-02-04T03:58:47.724Z,60.35
2019-02-04T03:59:18.937Z,60.15
2019-02-04T03:59:50.155Z,59.92
2019-02-04T04:00:31.073Z,59.60
2019-02-04T04:01:02.286Z,59.37
2019-02-04T04:01:33.609Z,58.35
2019-02-04T04:02:04.957Z,57.75
2019-02-04T04:02:36.209Z,56.64
2019-02-04T04:03:07.394Z,56.33
2019-02-04T04:03:38.664Z,56.02
2019-02-04T04:04:09.887Z,55.50
2019-02-04T04:04:41.166Z,54.85
2019-02-04T04:05:12.382Z,54.67
2019-02-04T04:05:44.022Z,53.89
2019-02-04T04:06:15.212Z,53.26
2019-02-04T04:06:46.445Z,53.03
2019-02-04T04:07:17.666Z,52.99
2019-02-04T04:07:48.977Z,53.18
2019-02-04T04:08:20.240Z,53.63
2019-02-04T04:08:51.526Z,54.29
2019-02-04T04:09:22.744Z,55.06
2019-02-04T04:09:53.969Z,55.68
2019-02-04T04:10:25.198Z,56.42
2019-02-04T04:10:56.523Z,57.04
2019-02-04T04:11:28.023Z,57.70
2019-02-04T04:11:59.349Z,58.70
2019-02-04T04:12:30.555Z,60.06
2019-02-04T04:13:01.753Z,60.56
2019-02-04T04:13:32.969Z,60.71
2019-02-04T04:14:04.189Z,60.69
2019-02-04T04:14:35.393Z,60.29
2019-02-04T04:15:12.097Z,59.71
2019-02-04T04:15:43.277Z,59.04
2019-02-04T04:16:14.610Z,58.22
2019-02-04T04:16:45.793Z,57.50
2019-02-04T04:17:17.019Z,56.35
2019-02-04T04:17:48.207Z,55.99
2019-02-04T04:18:19.836Z,55.32
2019-02-04T04:18:53.425Z,55.03
2019-02-04T04:19:24.135Z,54.80
2019-02-04T04:19:55.330Z,54.07
2019-02-04T04:20:26.582Z,53.22
2019-02-04T04:20:57.786Z,52.98
2019-02-04T04:21:29.100Z,52.92
2019-02-04T04:22:00.277Z,53.21
2019-02-04T04:22:31.782Z,53.64
2019-02-04T04:23:02.956Z,54.05
2019-02-04T04:23:34.462Z,54.59
2019-02-04T04:24:06.045Z,55.33
2019-02-04T04:24:37.314Z,56.22
2019-02-04T04:25:16.541Z,56.81
2019-02-04T04:25:47.798Z,57.22
2019-02-04T04:26:19.024Z,58.17
2019-02-04T04:26:50.286Z,59.48
2019-02-04T04:27:21.463Z,60.45
2019-02-04T04:27:52.718Z,60.81
2019-02-04T04:28:23.893Z,60.81
2019-02-04T04:28:55.135Z,60.46
2019-02-04T04:29:26.315Z,59.79
2019-02-04T04:29:57.561Z,59.09
2019-02-04T04:30:28.793Z,58.48
2019-02-04T04:31:00.397Z,57.63
2019-02-04T04:31:31.648Z,57.24
2019-02-04T04:32:02.974Z,56.57
2019-02-04T04:32:34.464Z,55.94
2019-02-04T04:33:05.688Z,55.45
2019-02-04T04:33:36.902Z,54.70
2019-02-04T04:34:08.118Z,54.04
2019-02-04T04:34:39.319Z,53.23
2019-02-04T04:35:10.538Z,52.92
2019-02-04T04:35:41.732Z,52.56
2019-02-04T04:36:12.960Z,53.00
2019-02-04T04:36:44.491Z,53.24
2019-02-04T04:37:15.719Z,53.35
2019-02-04T04:37:46.924Z,54.32
2019-02-04T04:38:18.197Z,55.36
2019-02-04T04:38:49.397Z,56.13
2019-02-04T04:39:20.649Z,57.04
2019-02-04T04:39:51.930Z,57.88
2019-02-04T04:40:23.154Z,58.90
2019-02-04T04:40:54.355Z,59.48
2019-02-04T04:41:25.574Z,59.88
2019-02-04T04:41:56.807Z,59.82
2019-02-04T04:42:28.487Z,59.79
2019-02-04T04:42:59.714Z,59.40
2019-02-04T04:43:30.922Z,58.44
2019-02-04T04:44:02.145Z,57.81
2019-02-04T04:44:33.375Z,57.16
2019-02-04T04:45:15.557Z,56.47
2019-02-04T04:45:46.997Z,56.27
2019-02-04T04:46:18.203Z,55.34
2019-02-04T04:46:49.441Z,54.34
2019-02-04T04:47:20.627Z,53.31
2019-02-04T04:47:51.883Z,52.64
2019-02-04T04:48:26.609Z,52.24
2019-02-04T04:48:56.219Z,52.28
2019-02-04T04:49:27.381Z,52.74
2019-02-04T04:49:58.659Z,53.16
2019-02-04T04:50:30.128Z,53.69
2019-02-04T04:51:01.658Z,54.29
2019-02-04T04:51:33.244Z,54.87
2019-02-04T04:52:04.628Z,55.41
2019-02-04T04:52:35.794Z,56.16
2019-02-04T04:53:07.022Z,56.72
2019-02-04T04:53:38.209Z,57.85
2019-02-04T04:54:09.472Z,58.91
2019-02-04T04:54:40.639Z,59.35
2019-02-04T04:55:25.889Z,59.21
2019-02-04T04:55:57.086Z,59.06
2019-02-04T04:56:28.335Z,58.28
2019-02-04T04:56:59.642Z,57.52
2019-02-04T04:57:30.843Z,56.98
2019-02-04T04:58:02.295Z,56.10
2019-02-04T04:58:33.491Z,55.35
2019-02-04T04:59:05.745Z,54.78
2019-02-04T04:59:37.251Z,53.84
2019-02-04T05:00:15.317Z,52.89
2019-02-04T05:00:46.866Z,52.21
2019-02-04T05:01:18.132Z,52.37
2019-02-04T05:01:49.420Z,52.59
2019-02-04T05:02:20.714Z,53.10
2019-02-04T05:02:51.980Z,53.58
2019-02-04T05:03:23.300Z,54.20
2019-02-04T05:03:54.565Z,54.97
2019-02-04T05:04:25.858Z,55.69
2019-02-04T05:04:57.143Z,56.30
2019-02-04T05:05:28.399Z,57.10
2019-02-04T05:05:59.799Z,58.12
2019-02-04T05:06:31.630Z,59.15
2019-02-04T05:07:02.904Z,59.93
2019-02-04T05:07:34.090Z,59.83
2019-02-04T05:08:05.339Z,59.57
2019-02-04T05:08:36.540Z,59.01
2019-02-04T05:09:07.797Z,58.23
2019-02-04T05:09:38.995Z,57.54
2019-02-04T05:10:14.555Z,56.95
2019-02-04T05:10:45.721Z,56.21
2019-02-04T05:11:16.953Z,55.69
2019-02-04T05:11:48.163Z,55.10
2019-02-04T05:12:19.408Z,54.56
2019-02-04T05:12:50.683Z,53.63
2019-02-04T05:13:22.266Z,53.08
2019-02-04T05:13:53.547Z,52.64
2019-02-04T05:14:24.786Z,52.86
2019-02-04T05:14:56.071Z,53.11
2019-02-04T05:15:27.351Z,53.52
2019-02-04T05:15:58.606Z,54.12
2019-02-04T05:16:29.868Z,54.81
2019-02-04T05:17:01.407Z,55.52
2019-02-04T05:17:32.686Z,56.12
2019-02-04T05:18:04.006Z,56.86
2019-02-04T05:18:38.200Z,57.60
2019-02-04T05:19:08.506Z,58.86
2019-02-04T05:19:39.766Z,59.62
2019-02-04T05:20:14.373Z,60.07
2019-02-04T05:20:45.627Z,59.93
2019-02-04T05:21:16.852Z,59.31
2019-02-04T05:21:48.038Z,58.95
2019-02-04T05:22:19.278Z,58.46
2019-02-04T05:22:50.462Z,57.94
2019-02-04T05:23:21.710Z,57.32
2019-02-04T05:23:52.905Z,56.64
2019-02-04T05:24:24.155Z,56.25
2019-02-04T05:24:55.367Z,55.61
2019-02-04T05:25:26.649Z,55.06
2019-02-04T05:25:58.114Z,54.72
2019-02-04T05:26:29.395Z,53.93
2019-02-04T05:27:00.752Z,53.10
2019-02-04T05:27:32.110Z,52.77
2019-02-04T05:28:03.411Z,52.66
2019-02-04T05:28:35.631Z,52.88
2019-02-04T05:29:06.845Z,53.49
2019-02-04T05:29:38.103Z,54.06
2019-02-04T05:30:14.507Z,54.58
2019-02-04T05:30:45.717Z,55.30
2019-02-04T05:31:16.937Z,55.98
2019-02-04T05:31:48.113Z,56.80
2019-02-04T05:32:19.377Z,57.69
2019-02-04T05:32:50.965Z,58.68
2019-02-04T05:33:22.221Z,59.76
2019-02-04T05:33:54.425Z,60.31
2019-02-04T05:34:25.637Z,60.59
2019-02-04T05:34:57.537Z,60.31
2019-02-04T05:35:28.988Z,59.96
2019-02-04T05:36:00.188Z,59.27
2019-02-04T05:36:31.651Z,58.72
2019-02-04T05:37:02.866Z,57.83
2019-02-04T05:37:34.100Z,57.25
2019-02-04T05:38:05.287Z,56.65
2019-02-04T05:38:36.518Z,56.19
2019-02-04T05:39:07.706Z,55.41
2019-02-04T05:39:39.364Z,54.71
2019-02-04T05:40:15.774Z,54.09
2019-02-04T05:40:47.455Z,53.03
2019-02-04T05:41:18.778Z,52.73
2019-02-04T05:41:49.977Z,52.81
2019-02-04T05:42:21.261Z,53.25
2019-02-04T05:42:52.483Z,53.67
2019-02-04T05:43:23.684Z,54.23
2019-02-04T05:43:54.913Z,54.73
2019-02-04T05:44:26.223Z,55.43
2019-02-04T05:44:57.495Z,56.09
2019-02-04T05:45:28.750Z,56.81
2019-02-04T05:45:59.961Z,57.61
2019-02-04T05:46:31.599Z,58.85
2019-02-04T05:47:02.997Z,59.79
2019-02-04T05:47:34.467Z,60.12
2019-02-04T05:48:05.680Z,59.85
2019-02-04T05:48:36.906Z,59.36
2019-02-04T05:49:08.140Z,59.21
2019-02-04T05:49:39.367Z,58.74
2019-02-04T05:50:13.202Z,58.03
2019-02-04T05:50:44.398Z,57.26
2019-02-04T05:51:15.596Z,56.67
2019-02-04T05:51:46.840Z,55.77
2019-02-04T05:52:18.380Z,55.41
2019-02-04T05:52:49.590Z,54.75
2019-02-04T05:53:20.817Z,53.62
2019-02-04T05:53:52.008Z,52.86
2019-02-04T05:54:23.224Z,52.31
2019-02-04T05:54:54.402Z,52.51
2019-02-04T05:55:25.600Z,52.53
2019-02-04T05:55:56.813Z,52.87
2019-02-04T05:56:28.129Z,53.37
2019-02-04T05:56:59.321Z,54.04
2019-02-04T05:57:30.588Z,54.78
2019-02-04T05:58:02.340Z,55.34
2019-02-04T05:58:33.626Z,56.19
2019-02-04T05:59:04.999Z,56.95
2019-02-04T05:59:36.269Z,58.16
2019-02-04T06:00:24.374Z,59.00
2019-02-04T06:00:55.625Z,59.46
2019-02-04T06:01:27.146Z,59.38
2019-02-04T06:01:58.376Z,58.90
2019-02-04T06:02:29.620Z,58.34
2019-02-04T06:03:00.865Z,57.57
2019-02-04T06:03:32.262Z,56.87
2019-02-04T06:04:03.517Z,56.35
2019-02-04T06:04:35.049Z,55.44
2019-02-04T06:05:09.775Z,54.48
2019-02-04T06:05:41.022Z,53.30
2019-02-04T06:06:12.248Z,52.53
2019-02-04T06:06:43.482Z,52.86
2019-02-04T06:07:15.506Z,52.38
2019-02-04T06:07:46.833Z,52.60
2019-02-04T06:08:18.454Z,53.06
2019-02-04T06:08:49.667Z,53.85
2019-02-04T06:09:20.846Z,54.55
2019-02-04T06:09:52.072Z,55.20
2019-02-04T06:10:23.290Z,56.12
2019-02-04T06:10:54.515Z,57.42
2019-02-04T06:11:25.750Z,58.15
2019-02-04T06:11:56.951Z,58.09
2019-02-04T06:12:28.205Z,58.06
2019-02-04T06:12:59.427Z,57.97
2019-02-04T06:13:30.648Z,57.26
2019-02-04T06:14:02.440Z,56.41
2019-02-04T06:14:33.644Z,56.16
2019-02-04T06:15:11.321Z,56.11
2019-02-04T06:15:42.559Z,56.16
2019-02-04T06:16:13.983Z,57.49
2019-02-04T06:16:45.296Z,58.15
2019-02-04T06:17:16.481Z,58.45
2019-02-04T06:17:47.724Z,58.22
2019-02-04T06:18:18.912Z,57.14
2019-02-04T06:19:00.053Z,56.43
2019-02-04T06:19:23.306Z,56.03
2019-02-04T06:19:54.540Z,56.18
2019-02-04T06:20:25.731Z,56.15
2019-02-04T06:20:57.274Z,56.81
2019-02-04T06:21:28.442Z,57.86
2019-02-04T06:21:59.729Z,58.30
2019-02-04T06:22:30.960Z,58.30
2019-02-04T06:23:02.478Z,57.93
2019-02-04T06:23:33.675Z,57.02
2019-02-04T06:24:05.011Z,56.52
2019-02-04T06:24:36.295Z,56.21
2019-02-04T06:25:07.584Z,56.10
2019-02-04T06:25:38.916Z,56.34
2019-02-04T06:26:10.166Z,57.45
2019-02-04T06:26:41.641Z,58.18
2019-02-04T06:27:12.865Z,58.31
2019-02-04T06:27:44.244Z,58.33
2019-02-04T06:28:15.534Z,57.60
2019-02-04T06:28:46.799Z,56.68
2019-02-04T06:29:18.091Z,56.41
2019-02-04T06:29:49.468Z,56.30
2019-02-04T06:30:20.782Z,56.33
2019-02-04T06:30:53.079Z,57.01
2019-02-04T06:31:24.367Z,57.99
2019-02-04T06:31:55.626Z,58.15
2019-02-04T06:32:26.806Z,57.63
2019-02-04T06:32:58.646Z,57.27
2019-02-04T06:33:30.263Z,56.56
2019-02-04T06:34:01.779Z,56.07
2019-02-04T06:34:32.964Z,56.01
2019-02-04T06:35:04.923Z,56.20
2019-02-04T06:35:36.202Z,56.85
2019-02-04T06:36:07.500Z,57.74
2019-02-04T06:36:38.810Z,58.20
2019-02-04T06:37:10.062Z,58.37
2019-02-04T06:37:41.266Z,58.19
2019-02-04T06:38:12.551Z,57.33
2019-02-04T06:38:43.748Z,56.67
2019-02-04T06:39:15.338Z,56.54
2019-02-04T06:39:46.589Z,56.73
2019-02-04T06:40:17.934Z,57.17
2019-02-04T06:40:49.131Z,58.02
2019-02-04T06:41:20.373Z,58.62
2019-02-04T06:41:52.562Z,59.09
2019-02-04T06:42:23.853Z,59.10
2019-02-04T06:42:55.077Z,58.99
2019-02-04T06:43:26.335Z,58.60
2019-02-04T06:43:57.591Z,58.21
2019-02-04T06:44:28.847Z,57.61
2019-02-04T06:45:00.344Z,56.95
2019-02-04T06:45:31.845Z,56.46
2019-02-04T06:46:03.147Z,56.02
2019-02-04T06:46:34.519Z,55.67
2019-02-04T06:47:05.807Z,55.09